Time;durP1;ratioP1;P1;durP2;ratioP2;P2;SDS_P1;SDS_P2;PMS_P1;PMS_P2;Temp;Humidity;BMP_temperature;BMP_pressure;BME280_temperature;BME280_humidity;BME280_pressure;Samples;Min_cycle;Max_cycle;Signal;HPM_P1;HPM_P2
2021/07/08 00:01:58;;;;;;;4.03;1.52;;;;;;;16.77;90.89;99079.75;5034300;28;20022;-72
2021/07/08 00:04:23;;;;;;;6.78;1.30;;;;;;;16.53;91.29;99051.56;5033690;28;20106;-70
2021/07/08 00:06:49;;;;;;;3.58;1.30;;;;;;;16.54;91.78;99063.31;5033609;28;20026;-72
2021/07/08 00:09:14;;;;;;;1.98;1.05;;;;;;;16.48;92.34;99061.50;5040081;28;20033;-72
2021/07/08 00:11:40;;;;;;;2.10;1.40;;;;;;;16.52;92.17;99073.63;5018432;28;20025;-71
2021/07/08 00:14:07;;;;;;;6.22;1.30;;;;;;;16.56;92.33;99072.94;5033345;28;20025;-72
2021/07/08 00:16:34;;;;;;;4.00;1.13;;;;;;;16.54;92.41;99080.53;5033949;28;20033;-71
2021/07/08 00:18:59;;;;;;;3.00;1.30;;;;;;;16.74;91.54;99080.22;5032699;28;20029;-71
2021/07/08 00:21:25;;;;;;;1.33;1.02;;;;;;;16.59;91.08;99060.72;5033570;28;20021;-73
2021/07/08 00:23:51;;;;;;;1.98;0.98;;;;;;;16.73;91.05;99078.53;5031612;28;20042;-71
2021/07/08 00:26:16;;;;;;;3.95;1.00;;;;;;;16.61;90.82;99069.47;5033035;28;20026;-70
2021/07/08 00:28:43;;;;;;;1.42;1.05;;;;;;;16.44;91.33;99045.59;5033381;28;20113;-70
2021/07/08 00:31:09;;;;;;;1.48;0.95;;;;;;;16.58;91.69;99080.88;5015463;28;20044;-70
2021/07/08 00:33:34;;;;;;;3.72;1.20;;;;;;;16.43;91.53;99054.03;5033614;28;20033;-70
2021/07/08 00:36:00;;;;;;;1.35;0.95;;;;;;;16.39;91.26;99059.13;5032799;28;20033;-70
2021/07/08 00:38:26;;;;;;;1.40;1.05;;;;;;;16.49;92.18;99074.13;5033200;28;20025;-70
2021/07/08 00:40:52;;;;;;;4.72;1.13;;;;;;;16.53;92.26;99075.28;5015832;28;20017;-70
2021/07/08 00:43:18;;;;;;;4.60;1.30;;;;;;;16.43;92.44;99059.50;5034429;28;20078;-70
2021/07/08 00:45:43;;;;;;;4.45;1.30;;;;;;;16.40;92.99;99055.34;5016672;28;20065;-70
2021/07/08 00:48:09;;;;;;;10.55;1.33;;;;;;;16.38;93.34;99056.66;5031973;28;20108;-70
2021/07/08 00:50:42;;;;;;;1.98;1.00;;;;;;;16.38;93.56;99052.00;5032289;28;20034;-70
2021/07/08 00:53:10;;;;;;;2.13;1.30;;;;;;;16.39;93.80;99055.56;5010443;28;20493;-72
2021/07/08 00:55:35;;;;;;;2.60;1.45;;;;;;;16.37;94.00;99069.47;5013238;28;20026;-70
2021/07/08 00:58:01;;;;;;;4.80;1.50;;;;;;;16.31;93.86;99062.19;5013149;28;20735;-70
2021/07/08 01:00:29;;;;;;;3.53;1.13;;;;;;;16.32;93.35;99054.84;5026779;28;20053;-70
2021/07/08 01:02:56;;;;;;;5.93;1.00;;;;;;;16.42;93.61;99068.75;5032381;28;20040;-70
2021/07/08 01:05:25;;;;;;;2.92;1.35;;;;;;;16.44;93.60;99070.19;5031985;28;20033;-70
2021/07/08 01:07:51;;;;;;;;;;;;;;;16.48;93.61;99067.81;5014863;28;20037;-72
2021/07/08 01:10:17;;;;;;;3.58;1.20;;;;;;;16.47;93.51;99066.16;5032534;28;19936;-71
2021/07/08 01:12:42;;;;;;;3.38;0.98;;;;;;;16.48;92.64;99029.59;5032149;28;20782;-71
2021/07/08 01:15:10;;;;;;;2.85;1.00;;;;;;;16.76;91.20;99047.16;5032232;28;20068;-72
2021/07/08 01:17:38;;;;;;;3.72;1.00;;;;;;;16.81;90.35;99037.22;5031990;28;20056;-72
2021/07/08 01:20:05;;;;;;;1.85;1.02;;;;;;;16.73;90.58;99014.84;5030877;28;20032;-71
2021/07/08 01:22:30;;;;;;;3.97;1.13;;;;;;;16.64;91.28;99007.03;5014965;28;20134;-71
2021/07/08 01:24:56;;;;;;;3.80;1.08;;;;;;;16.41;91.55;98975.06;5014502;28;20067;-71
2021/07/08 01:27:21;;;;;;;5.97;1.23;;;;;;;16.59;91.70;98989.69;5014412;28;20021;-71
2021/07/08 01:29:47;;;;;;;9.25;1.27;;;;;;;16.55;91.73;98969.38;5032044;28;20112;-71
2021/07/08 01:32:12;;;;;;;2.30;1.35;;;;;;;16.41;92.15;98955.97;5024834;28;20036;-71
2021/07/08 01:34:37;;;;;;;7.22;1.38;;;;;;;16.26;92.92;98957.50;5028572;28;20455;-71
2021/07/08 01:37:04;;;;;;;4.88;1.38;;;;;;;16.00;93.10;98933.13;5030265;28;20029;-70
2021/07/08 01:39:30;;;;;;;3.33;1.30;;;;;;;16.20;93.90;98978.38;5031708;28;20396;-72
2021/07/08 01:41:55;;;;;;;1.85;1.20;;;;;;;16.16;94.42;98975.28;5031513;28;20033;-71
2021/07/08 01:44:21;;;;;;;8.77;2.10;;;;;;;16.10;94.06;98953.56;5029010;28;20396;-70
2021/07/08 01:46:46;;;;;;;2.88;1.40;;;;;;;16.26;92.92;98979.34;5023879;28;20033;-71
2021/07/08 01:49:12;;;;;;;4.72;1.17;;;;;;;16.42;92.54;98979.44;5031673;28;20563;-71
2021/07/08 01:51:37;;;;;;;6.72;1.35;;;;;;;16.19;92.17;98946.69;5030555;28;20040;-71
2021/07/08 01:54:05;;;;;;;1.45;1.02;;;;;;;16.36;92.44;98982.31;5013886;28;20030;-71
2021/07/08 01:56:33;;;;;;;5.95;1.63;;;;;;;16.22;93.06;98976.25;5019854;28;20029;-71
2021/07/08 01:58:58;;;;;;;10.88;1.50;;;;;;;16.37;93.15;98993.00;5032058;28;20113;-71
2021/07/08 02:01:23;;;;;;;11.27;1.30;;;;;;;16.26;93.36;98984.78;5031881;28;20045;-71
2021/07/08 02:03:49;;;;;;;2.60;1.17;;;;;;;16.12;93.86;98976.00;5015457;28;20029;-71
2021/07/08 02:06:15;;;;;;;3.17;1.10;;;;;;;16.42;93.62;98997.75;5034141;28;20075;-71
2021/07/08 02:08:42;;;;;;;5.65;1.23;;;;;;;16.33;93.73;98986.34;5033936;28;20398;-71
2021/07/08 02:11:09;;;;;;;10.00;1.45;;;;;;;16.28;94.46;98975.31;5015965;28;20129;-71
2021/07/08 02:13:38;;;;;;;1.20;1.10;;;;;;;16.18;94.67;98955.94;5030854;28;20359;-71
2021/07/08 02:16:09;;;;;;;3.75;1.23;;;;;;;16.16;94.52;98952.63;5029562;28;20108;-71
2021/07/08 02:18:36;;;;;;;3.35;0.95;;;;;;;16.16;93.24;98949.88;5014534;28;20038;-71
2021/07/08 02:21:01;;;;;;;3.58;1.67;;;;;;;16.38;94.33;98989.19;5031119;28;20472;-71
2021/07/08 02:23:26;;;;;;;4.65;1.52;;;;;;;16.30;95.45;98965.00;5013600;28;20100;-70
2021/07/08 02:25:52;;;;;;;11.70;1.30;;;;;;;16.34;95.86;98978.97;5031126;28;20772;-72
2021/07/08 02:28:17;;;;;;;6.22;1.30;;;;;;;16.18;95.68;98975.88;5031855;28;20029;-70
2021/07/08 02:30:42;;;;;;;10.95;1.48;;;;;;;16.02;95.79;98981.22;5031689;28;20497;-70
2021/07/08 02:33:08;;;;;;;10.43;1.35;;;;;;;15.98;96.73;98992.59;5031036;28;20032;-70
2021/07/08 02:35:35;;;;;;;6.05;1.40;;;;;;;16.08;97.28;99002.91;5031601;28;20641;-70
2021/07/08 02:38:01;;;;;;;2.05;1.35;;;;;;;16.00;96.95;98995.06;5036589;28;20386;-72
2021/07/08 02:40:32;;;;;;;4.15;1.75;;;;;;;16.02;97.05;98992.94;5034093;28;20475;-70
2021/07/08 02:42:59;;;;;;;1.38;1.10;;;;;;;15.92;97.03;98976.31;5020281;28;20075;-70
2021/07/08 02:45:27;;;;;;;4.32;1.50;;;;;;;16.05;96.97;98992.47;5031370;28;20096;-70
2021/07/08 02:47:54;;;;;;;6.75;1.30;;;;;;;16.13;96.51;98972.19;5026809;28;20017;-70
2021/07/08 02:50:21;;;;;;;3.05;1.20;;;;;;;16.35;94.79;98986.94;5027687;28;20395;-70
2021/07/08 02:52:47;;;;;;;1.45;0.98;;;;;;;16.29;94.79;98997.97;5024679;28;20029;-69
2021/07/08 02:55:13;;;;;;;5.57;1.38;;;;;;;16.08;95.60;98981.09;5051445;28;20028;-70
2021/07/08 02:57:39;;;;;;;2.38;1.08;;;;;;;16.15;95.81;98997.38;5038318;28;20144;-71
2021/07/08 03:00:07;;;;;;;4.55;1.30;;;;;;;16.09;95.64;98980.03;5031499;28;20067;-69
2021/07/08 03:02:33;;;;;;;6.00;1.60;;;;;;;16.14;95.83;98979.34;5012955;28;20053;-71
2021/07/08 03:04:58;;;;;;;3.28;1.20;;;;;;;16.07;96.21;98962.22;5032558;28;20118;-71
2021/07/08 03:07:23;;;;;;;3.13;1.63;;;;;;;16.25;96.17;98996.78;5034632;28;20172;-71
2021/07/08 03:09:49;;;;;;;2.63;1.23;;;;;;;16.21;95.68;98991.78;5034290;28;20044;-71
2021/07/08 03:12:14;;;;;;;6.18;1.52;;;;;;;16.12;96.27;99004.13;5033995;28;20029;-71
2021/07/08 03:14:39;;;;;;;3.33;2.10;;;;;;;16.15;96.32;99011.84;5034431;28;20104;-72
2021/07/08 03:17:05;;;;;;;3.88;1.38;;;;;;;16.07;96.31;98989.53;5034778;28;20025;-71
2021/07/08 03:19:30;;;;;;;5.07;1.38;;;;;;;16.08;96.40;99013.84;5037607;28;20021;-71
2021/07/08 03:21:56;;;;;;;8.25;1.55;;;;;;;16.06;96.58;99005.06;5034584;28;20033;-71
2021/07/08 03:24:21;;;;;;;8.10;1.70;;;;;;;16.02;97.29;99006.59;5033716;28;20053;-71
2021/07/08 03:26:46;;;;;;;8.60;1.63;;;;;;;15.87;97.75;98992.56;5034207;28;20132;-71
2021/07/08 03:29:11;;;;;;;4.78;1.45;;;;;;;15.95;97.92;99009.41;5037977;28;20037;-71
2021/07/08 03:31:37;;;;;;;4.07;1.60;;;;;;;15.86;97.52;99008.09;5040531;28;20026;-70
2021/07/08 03:34:02;;;;;;;4.85;1.70;;;;;;;15.97;96.96;99017.38;5033902;28;20067;-70
2021/07/08 03:36:27;;;;;;;9.20;1.80;;;;;;;16.06;97.00;99032.38;5034509;28;20025;-71
2021/07/08 03:38:53;;;;;;;4.45;1.80;;;;;;;16.08;97.28;99024.75;5033726;28;20619;-71
2021/07/08 03:41:18;;;;;;;4.88;1.60;;;;;;;16.13;96.90;99016.69;5017137;28;20112;-71
2021/07/08 03:43:44;;;;;;;3.47;1.70;;;;;;;16.12;96.21;99028.69;5033775;28;20526;-70
2021/07/08 03:46:09;;;;;;;3.22;1.58;;;;;;;16.06;96.91;99039.69;5034860;28;20022;-70
2021/07/08 03:48:35;;;;;;;4.25;1.70;;;;;;;15.98;97.43;99033.53;5034390;28;20433;-71
2021/07/08 03:51:00;;;;;;;1.80;1.40;;;;;;;15.98;97.52;99043.59;5034179;28;20056;-71
2021/07/08 03:53:25;;;;;;;7.50;1.98;;;;;;;16.09;97.59;99041.97;5033527;28;20049;-69
2021/07/08 03:55:51;;;;;;;3.83;2.15;;;;;;;16.14;97.44;99036.66;5032383;28;20026;-67
2021/07/08 03:58:16;;;;;;;3.78;1.70;;;;;;;16.09;97.35;99022.88;5032256;28;20044;-68
2021/07/08 04:00:42;;;;;;;4.47;1.75;;;;;;;16.18;96.97;99035.09;5015794;28;20037;-69
2021/07/08 04:03:13;;;;;;;8.10;2.03;;;;;;;16.34;96.11;99034.41;5033639;28;20479;-68
2021/07/08 04:05:39;;;;;;;6.97;1.70;;;;;;;16.38;96.07;99030.16;5033687;28;20441;-68
2021/07/08 04:08:07;;;;;;;1.70;1.60;;;;;;;16.36;95.25;99009.63;5012486;28;20060;-71
2021/07/08 04:10:35;;;;;;;3.40;1.75;;;;;;;16.37;96.19;99039.44;5031515;28;20032;-68
2021/07/08 04:13:01;;;;;;;4.82;1.83;;;;;;;16.28;96.50;99020.91;5024253;28;20566;-74
2021/07/08 04:15:27;;;;;;;2.75;1.42;;;;;;;16.25;95.58;99011.28;5008860;28;20025;-74
2021/07/08 04:17:52;;;;;;;3.10;1.77;;;;;;;16.22;95.40;99006.28;5029170;28;20032;-70
2021/07/08 04:20:20;;;;;;;4.95;1.67;;;;;;;16.15;95.72;99016.47;5021418;28;20132;-74
2021/07/08 04:22:47;;;;;;;4.55;1.58;;;;;;;16.13;95.72;99011.25;5033395;28;20387;-77
2021/07/08 04:25:14;;;;;;;5.05;1.80;;;;;;;16.19;96.33;99025.84;5015263;28;20483;-72
2021/07/08 04:27:40;;;;;;;2.45;1.65;;;;;;;16.13;96.89;99013.13;5013649;28;20534;-76
2021/07/08 04:30:08;;;;;;;5.30;2.20;;;;;;;16.26;96.80;99020.28;5029800;28;20495;-73
2021/07/08 04:32:38;;;;;;;4.80;1.92;;;;;;;16.40;96.44;99014.38;5017312;28;20090;-68
2021/07/08 04:35:04;;;;;;;2.33;1.58;;;;;;;16.49;94.73;99024.94;5015237;28;20395;-71
2021/07/08 04:37:29;;;;;;;3.20;1.70;;;;;;;16.36;94.83;99015.09;5032155;28;20163;-73
2021/07/08 04:39:56;;;;;;;2.10;1.48;;;;;;;16.58;93.95;99005.25;5015354;28;20076;-76
2021/07/08 04:42:21;;;;;;;2.58;1.70;;;;;;;16.70;92.31;98972.44;5012101;28;20036;-75
2021/07/08 04:44:47;;;;;;;4.38;1.80;;;;;;;16.68;91.65;98955.47;5032754;28;20025;-74
2021/07/08 04:47:16;;;;;;;3.88;1.52;;;;;;;16.63;91.15;98950.72;5030239;28;20044;-74
2021/07/08 04:49:42;;;;;;;4.95;1.63;;;;;;;16.61;90.64;98960.22;5003124;28;20156;-76
2021/07/08 04:52:18;;;;;;;5.10;1.80;;;;;;;16.83;91.32;98985.06;5026703;28;20065;-75
2021/07/08 04:54:43;;;;;;;3.53;1.67;;;;;;;16.81;90.94;98973.53;5008487;28;20104;-77
2021/07/08 04:57:09;;;;;;;3.63;1.95;;;;;;;16.83;91.77;98988.63;5022102;28;20104;-77
2021/07/08 04:59:34;;;;;;;4.78;1.85;;;;;;;16.83;92.35;98987.78;4996006;28;20380;-78
2021/07/08 05:02:00;;;;;;;2.85;1.85;;;;;;;16.89;93.70;99013.34;4996147;28;20368;-77
2021/07/08 05:04:25;;;;;;;4.10;1.80;;;;;;;16.79;93.06;98984.72;5019870;28;20056;-72
2021/07/08 05:06:50;;;;;;;3.78;1.70;;;;;;;16.96;92.75;98994.91;5011202;28;20025;-72
2021/07/08 05:09:16;;;;;;;4.35;1.88;;;;;;;17.06;90.54;98993.22;5029879;28;20434;-71
2021/07/08 05:11:42;;;;;;;2.20;1.90;;;;;;;17.12;90.51;99012.47;5032304;28;20103;-69
2021/07/08 05:14:07;;;;;;;4.57;2.40;;;;;;;17.22;89.27;99002.56;5023551;28;20060;-72
2021/07/08 05:16:33;;;;;;;3.45;1.92;;;;;;;17.13;90.16;98984.88;5013372;28;20025;-79
2021/07/08 05:18:58;;;;;;;2.28;1.73;;;;;;;17.18;88.79;98963.09;5037234;28;20506;-79
2021/07/08 05:21:23;;;;;;;6.15;2.15;;;;;;;16.99;88.74;98915.16;5016773;28;20130;-74
2021/07/08 05:23:51;;;;;;;7.13;2.08;;;;;;;17.45;87.05;98978.97;5017088;28;20021;-76
2021/07/08 05:26:17;;;;;;;3.20;2.10;;;;;;;17.56;86.34;98983.56;5022034;28;20041;-77
2021/07/08 05:28:42;;;;;;;5.13;1.92;;;;;;;17.54;86.17;98982.97;5014448;28;20029;-72
2021/07/08 05:31:07;;;;;;;2.67;1.70;;;;;;;17.65;85.18;98973.03;5032192;28;20144;-75
2021/07/08 05:33:33;;;;;;;3.90;1.83;;;;;;;17.69;85.05;98966.84;5031666;28;20021;-73
2021/07/08 05:35:58;;;;;;;1.90;1.67;;;;;;;17.71;86.05;98978.38;5031786;28;20029;-71
2021/07/08 05:38:23;;;;;;;2.20;1.60;;;;;;;17.72;85.86;98963.59;5044032;28;20024;-75
2021/07/08 05:40:48;;;;;;;2.85;1.60;;;;;;;17.90;86.29;98978.19;5017734;28;20398;-73
2021/07/08 05:43:14;;;;;;;3.85;1.40;;;;;;;17.78;86.52;98952.75;5030003;28;20029;-70
2021/07/08 05:45:40;;;;;;;7.38;1.63;;;;;;;17.83;86.51;98986.53;5031452;28;20046;-72
2021/07/08 05:48:06;;;;;;;2.47;1.50;;;;;;;17.75;87.28;98968.59;5031441;28;20108;-77
2021/07/08 05:50:31;;;;;;;2.40;1.50;;;;;;;17.84;87.37;99004.66;5014658;28;20071;-77
2021/07/08 05:52:56;;;;;;;3.75;1.80;;;;;;;17.79;87.68;98996.34;5016343;28;20022;-76
2021/07/08 05:55:22;;;;;;;5.85;1.70;;;;;;;17.86;87.00;99029.00;5021404;28;20026;-67
2021/07/08 05:57:47;;;;;;;6.20;1.92;;;;;;;17.46;89.64;99046.28;5031151;28;20128;-65
2021/07/08 06:00:15;;;;;;;2.97;1.83;;;;;;;17.24;89.90;99026.97;5028451;28;20029;-74
2021/07/08 06:02:41;;;;;;;3.13;2.03;;;;;;;17.34;90.09;99059.13;5026070;28;20033;-77
2021/07/08 06:05:07;;;;;;;5.40;2.15;;;;;;;17.40;89.50;99052.72;5010521;28;20465;-73
2021/07/08 06:07:32;;;;;;;2.47;1.70;;;;;;;17.53;89.87;99079.81;5027343;28;20399;-75
2021/07/08 06:09:58;;;;;;;2.17;1.65;;;;;;;17.61;89.78;99098.56;5023770;28;20032;-80
2021/07/08 06:12:23;;;;;;;3.55;1.77;;;;;;;17.55;89.06;99074.91;5017072;28;20087;-73
2021/07/08 06:14:49;;;;;;;7.88;1.77;;;;;;;17.62;88.34;99105.69;5027265;28;20022;-74
2021/07/08 06:17:14;;;;;;;5.95;1.50;;;;;;;17.71;87.73;99103.41;5015328;28;20032;-72
2021/07/08 06:19:40;;;;;;;2.05;1.58;;;;;;;17.56;88.02;99082.03;5032749;28;20021;-72
2021/07/08 06:22:05;;;;;;;5.68;2.00;;;;;;;17.70;87.18;99113.53;5030833;28;20061;-72
2021/07/08 06:24:30;;;;;;;2.80;1.70;;;;;;;17.67;88.04;99116.75;5026988;28;20033;-76
2021/07/08 06:26:56;;;;;;;4.80;2.05;;;;;;;17.79;88.48;99137.75;5011592;28;20425;-64
2021/07/08 06:29:21;;;;;;;5.15;2.08;;;;;;;17.94;88.11;99129.91;5028269;28;20479;-80
2021/07/08 06:31:46;;;;;;;5.85;1.52;;;;;;;17.95;87.56;99099.56;5024578;28;20096;-71
2021/07/08 06:34:12;;;;;;;3.03;1.88;;;;;;;18.10;86.95;99089.97;5024168;28;20029;-77
2021/07/08 06:36:38;;;;;;;4.13;2.05;;;;;;;18.34;86.84;99113.44;5014109;28;20384;-73
2021/07/08 06:39:03;;;;;;;4.43;2.00;;;;;;;18.62;84.86;99125.41;5033288;28;20030;-73
2021/07/08 06:41:29;;;;;;;4.78;1.77;;;;;;;18.93;83.43;99121.28;5035514;28;20498;-75
2021/07/08 06:43:54;;;;;;;6.18;2.35;;;;;;;19.13;81.71;99114.47;5037143;28;20036;-72
2021/07/08 06:46:27;;;;;;;5.93;1.98;;;;;;;19.14;81.48;99102.41;5026623;28;20040;-70
2021/07/08 06:48:53;;;;;;;4.53;2.35;;;;;;;19.23;81.59;99120.94;5035222;28;20095;-74
2021/07/08 06:51:18;;;;;;;6.90;2.05;;;;;;;19.20;80.85;99110.47;5036615;28;20479;-73
2021/07/08 06:53:43;;;;;;;4.07;2.10;;;;;;;19.12;81.25;99104.56;5032457;28;20044;-70
2021/07/08 06:56:09;;;;;;;4.90;2.17;;;;;;;19.02;82.49;99117.06;5023735;28;20026;-70
2021/07/08 06:58:35;;;;;;;3.23;1.70;;;;;;;19.04;83.01;99106.66;5027998;28;20021;-70
2021/07/08 07:01:00;;;;;;;5.60;2.50;;;;;;;19.13;83.21;99103.50;5026096;28;20239;-70
2021/07/08 07:03:26;;;;;;;5.97;2.05;;;;;;;18.93;84.00;99082.91;5025485;28;20029;-70
2021/07/08 07:05:52;;;;;;;5.15;2.22;;;;;;;18.87;84.19;99064.72;5024513;28;20479;-70
2021/07/08 07:08:17;;;;;;;5.50;2.10;;;;;;;18.95;84.04;99085.41;5026582;28;20059;-70
2021/07/08 07:10:42;;;;;;;3.80;2.00;;;;;;;18.86;84.39;99076.75;5024759;28;20077;-70
2021/07/08 07:13:12;;;;;;;4.38;1.98;;;;;;;18.96;83.20;99090.63;5026226;28;20453;-68
2021/07/08 07:15:39;;;;;;;4.85;2.03;;;;;;;19.06;82.69;99089.94;5033438;28;20037;-75
2021/07/08 07:18:05;;;;;;;3.03;2.08;;;;;;;18.98;81.76;99077.50;5017790;28;20063;-74
2021/07/08 07:20:31;;;;;;;8.82;2.20;;;;;;;18.79;83.30;99087.91;5034563;28;20032;-76
2021/07/08 07:22:57;;;;;;;3.35;2.45;;;;;;;18.65;83.87;99072.84;5019922;28;20033;-78
2021/07/08 07:25:24;;;;;;;2.50;2.25;;;;;;;18.65;84.73;99091.19;5039460;28;20029;-83
2021/07/08 07:27:52;;;;;;;5.38;2.38;;;;;;;18.57;84.42;99063.13;5018251;28;20593;-73
2021/07/08 07:30:20;;;;;;;4.70;2.60;;;;;;;18.50;84.85;99094.53;5016581;28;20018;-72
2021/07/08 07:32:46;;;;;;;2.80;1.90;;;;;;;18.62;84.91;99076.91;5030102;28;20021;-73
2021/07/08 07:35:12;;;;;;;6.03;2.20;;;;;;;19.00;84.54;99113.72;5026795;28;20036;-77
2021/07/08 07:37:37;;;;;;;6.95;2.53;;;;;;;18.89;84.10;99079.03;5016451;28;20041;-74
2021/07/08 07:40:04;;;;;;;3.28;2.42;;;;;;;19.37;83.42;99109.59;5031066;28;20395;-67
2021/07/08 07:42:29;;;;;;;7.20;2.63;;;;;;;19.59;82.03;99106.84;5024633;28;20495;-69
2021/07/08 07:44:54;;;;;;;3.38;2.00;;;;;;;19.88;81.41;99094.59;5020275;28;20030;-74
2021/07/08 07:47:20;;;;;;;4.75;2.35;;;;;;;20.22;79.63;99099.91;5034597;28;20052;-82
2021/07/08 07:49:45;;;;;;;5.97;1.92;;;;;;;20.43;78.51;99078.13;5016005;28;20029;-77
2021/07/08 07:52:12;;;;;;;4.57;2.17;;;;;;;20.41;78.71;99072.06;5027449;28;20029;-77
2021/07/08 07:54:39;;;;;;;8.38;2.30;;;;;;;20.45;77.78;99067.72;5027700;28;20366;-72
2021/07/08 07:57:05;;;;;;;4.05;1.95;;;;;;;20.60;77.72;99084.38;5008417;28;20140;-68
2021/07/08 07:59:35;;;;;;;5.70;1.80;;;;;;;20.74;76.38;99080.09;5016757;28;20040;-68
2021/07/08 08:02:01;;;;;;;5.32;2.08;;;;;;;20.69;75.68;99069.03;5033824;28;20021;-74
2021/07/08 08:04:32;;;;;;;2.78;1.73;;;;;;;20.64;75.42;99055.25;5016283;28;20029;-75
2021/07/08 08:09:42;;;;;;;7.63;2.22;;;;;;;20.95;74.18;99080.25;5030370;28;20044;-69
2021/07/08 08:12:08;;;;;;;5.13;2.25;;;;;;;21.02;73.99;99080.84;5032086;28;20398;-72
2021/07/08 08:14:33;;;;;;;3.65;2.20;;;;;;;20.78;73.54;99026.22;5030905;28;20033;-74
2021/07/08 08:16:59;;;;;;;5.05;1.90;;;;;;;21.04;74.02;99055.81;5032839;28;20033;-72
2021/07/08 08:19:25;;;;;;;5.78;2.15;;;;;;;21.34;73.50;99089.00;5024575;28;20376;-73
2021/07/08 08:21:50;;;;;;;2.92;1.80;;;;;;;21.41;72.20;99086.88;5025168;28;20091;-75
2021/07/08 08:24:15;;;;;;;2.88;2.05;;;;;;;21.30;72.00;99084.28;5031640;28;20091;-72
2021/07/08 08:26:41;;;;;;;3.38;1.92;;;;;;;21.51;72.54;99099.03;5032297;28;20033;-73
2021/07/08 08:29:06;;;;;;;3.10;2.00;;;;;;;21.65;71.29;99087.25;5031598;28;20021;-67
2021/07/08 08:31:31;;;;;;;5.10;2.38;;;;;;;21.28;72.15;99092.03;5033163;28;20071;-68
2021/07/08 08:33:57;;;;;;;5.03;1.98;;;;;;;21.10;72.46;99077.59;5032140;28;20049;-69
2021/07/08 08:36:22;;;;;;;7.07;2.30;;;;;;;21.07;73.41;99075.38;5032394;28;20044;-68
2021/07/08 08:38:48;;;;;;;4.55;1.77;;;;;;;21.12;73.88;99080.09;5027775;28;20030;-67
2021/07/08 08:41:13;;;;;;;3.05;2.20;;;;;;;21.20;72.14;99065.81;5031791;28;20025;-72
2021/07/08 08:43:39;;;;;;;6.05;2.10;;;;;;;21.18;74.07;99079.84;5028935;28;20483;-67
2021/07/08 08:46:05;;;;;;;3.50;2.22;;;;;;;21.40;73.14;99062.38;5030857;28;20029;-76
2021/07/08 08:48:31;;;;;;;4.22;1.90;;;;;;;21.98;72.48;99076.94;5011713;28;20029;-71
2021/07/08 08:50:56;;;;;;;3.05;1.70;;;;;;;22.52;69.79;99081.97;5012352;28;20052;-70
2021/07/08 08:53:21;;;;;;;3.08;2.03;;;;;;;22.61;66.30;99086.94;5031550;28;20029;-69
2021/07/08 08:55:48;;;;;;;2.83;1.83;;;;;;;22.93;64.65;99104.06;5033049;28;20021;-70
2021/07/08 08:58:19;;;;;;;2.13;1.75;;;;;;;23.26;64.32;99093.53;5032518;28;20116;-73
2021/07/08 09:00:49;;;;;;;2.95;1.60;;;;;;;23.90;63.16;99099.44;5032064;28;20029;-73
2021/07/08 09:03:26;;;;;;;3.03;1.88;;;;;;;24.02;63.51;99100.72;5030461;28;20083;-69
2021/07/08 09:06:06;;;;;;;3.33;1.48;;;;;;;24.69;59.82;99100.34;5012802;28;20061;-78
2021/07/08 09:08:33;;;;;;;5.70;1.60;;;;;;;24.33;60.00;99102.50;5030243;28;20029;-71
2021/07/08 09:11:01;;;;;;;2.30;1.50;;;;;;;23.56;60.03;99100.09;5032083;28;20028;-71
2021/07/08 09:13:28;;;;;;;2.23;1.30;;;;;;;24.04;59.43;99100.47;5023341;28;20583;-72
2021/07/08 09:15:53;;;;;;;1.88;1.20;;;;;;;25.06;57.68;99088.66;5031583;28;20020;-71
2021/07/08 09:18:18;;;;;;;3.65;1.45;;;;;;;25.31;56.50;99062.69;5014872;28;20419;-71
2021/07/08 09:20:44;;;;;;;3.72;1.23;;;;;;;25.83;55.51;99090.56;5032385;28;20108;-71
2021/07/08 09:23:16;;;;;;;6.28;1.17;;;;;;;25.32;56.16;99096.72;5030656;28;20036;-70
2021/07/08 09:25:43;;;;;;;4.70;1.58;;;;;;;25.26;57.14;99109.00;5032033;28;20045;-70
2021/07/08 09:28:11;;;;;;;4.47;1.20;;;;;;;25.36;55.60;99109.69;5032174;28;20036;-69
2021/07/08 09:30:36;;;;;;;1.55;1.23;;;;;;;25.16;56.14;99115.44;5014156;28;20545;-70
2021/07/08 09:33:02;;;;;;;1.40;1.10;;;;;;;24.67;58.42;99103.38;5003229;28;20046;-70
2021/07/08 09:35:35;;;;;;;2.03;1.20;;;;;;;24.74;57.56;99122.44;5031981;28;20053;-70
2021/07/08 09:38:12;;;;;;;2.88;1.25;;;;;;;25.23;56.80;99128.94;5014623;28;20126;-69
2021/07/08 09:40:40;;;;;;;2.25;1.25;;;;;;;25.72;55.59;99116.78;5032003;28;20029;-70
2021/07/08 09:43:05;;;;;;;2.40;1.40;;;;;;;25.21;56.55;99131.19;5032120;28;20506;-69
2021/07/08 09:45:46;;;;;;;2.53;1.30;;;;;;;23.90;59.19;99116.84;5032888;28;20037;-70
2021/07/08 09:48:21;;;;;;;1.48;1.25;;;;;;;24.16;59.38;99119.47;5032753;28;20029;-70
2021/07/08 09:50:47;;;;;;;1.60;1.23;;;;;;;23.90;59.56;99111.31;5032199;28;20433;-71
2021/07/08 09:53:24;;;;;;;2.92;1.58;;;;;;;23.94;60.36;99114.31;5031664;28;20026;-70
2021/07/08 09:58:58;;;;;;;2.15;1.20;;;;;;;24.57;56.98;99106.22;5022821;28;20053;-66
2021/07/08 10:01:25;;;;;;;2.65;1.30;;;;;;;24.32;58.11;99115.50;5030699;28;20390;-68
2021/07/08 10:03:52;;;;;;;1.30;1.20;;;;;;;23.98;57.81;99113.47;5031690;28;20022;-68
2021/07/08 10:06:20;;;;;;;3.25;1.40;;;;;;;23.76;60.20;99104.72;5013307;28;20029;-67
2021/07/08 10:08:46;;;;;;;5.57;1.90;;;;;;;23.30;61.88;99091.88;5030243;28;20521;-70
2021/07/08 10:11:13;;;;;;;2.58;1.30;;;;;;;23.56;60.72;99097.34;5031775;28;20040;-68
2021/07/08 10:13:39;;;;;;;1.88;1.17;;;;;;;23.51;60.43;99094.59;5014559;28;20030;-69
2021/07/08 10:16:06;;;;;;;3.78;1.50;;;;;;;23.48;61.76;99092.41;5034609;28;20049;-72
2021/07/08 10:18:35;;;;;;;2.55;1.50;;;;;;;22.93;63.68;99089.44;5036115;28;20045;-77
2021/07/08 10:21:01;;;;;;;7.18;1.60;;;;;;;23.18;62.76;99094.94;5036598;28;20025;-77
2021/07/08 10:23:32;;;;;;;2.35;1.40;;;;;;;23.11;61.65;99094.41;5035949;28;20026;-77
2021/07/08 10:25:59;;;;;;;3.00;1.50;;;;;;;23.22;62.15;99097.97;5036664;28;20078;-76
2021/07/08 10:28:25;;;;;;;3.15;1.25;;;;;;;23.21;61.70;99067.88;5022235;28;20030;-75
2021/07/08 10:30:51;;;;;;;2.78;1.58;;;;;;;23.86;60.50;99087.28;5035961;28;20072;-70
2021/07/08 10:33:20;;;;;;;2.85;1.13;;;;;;;24.19;58.79;99086.53;5031654;28;20022;-69
2021/07/08 10:35:48;;;;;;;2.13;1.20;;;;;;;24.67;57.72;99081.25;5014621;28;20013;-70
2021/07/08 10:38:31;;;;;;;1.60;1.20;;;;;;;25.12;57.26;99076.38;5032709;28;20056;-69
2021/07/08 10:41:00;;;;;;;3.65;1.20;;;;;;;25.08;58.45;99057.91;5032613;28;20101;-69
2021/07/08 10:43:35;;;;;;;1.77;1.20;;;;;;;25.32;56.75;99061.53;5037393;28;20025;-69
2021/07/08 10:46:04;;;;;;;3.17;1.17;;;;;;;25.26;55.91;99073.00;5032655;28;20039;-69
2021/07/08 10:48:44;;;;;;;3.05;1.40;;;;;;;25.88;55.37;99056.44;5031061;28;20052;-67
2021/07/08 10:51:38;;;;;;;1.58;1.20;;;;;;;26.35;53.60;99055.47;5032122;28;20039;-67
2021/07/08 10:54:29;;;;;;;1.20;1.00;;;;;;;26.49;54.19;99052.78;5032114;28;20029;-68
2021/07/08 10:56:56;;;;;;;5.40;1.08;;;;;;;26.13;55.70;99049.72;5032938;28;20026;-70
2021/07/08 10:59:21;;;;;;;2.50;1.10;;;;;;;26.40;54.30;99063.72;5034239;28;20034;-71
2021/07/08 11:01:50;;;;;;;4.32;1.40;;;;;;;26.07;54.46;99078.63;5028398;28;20075;-69
2021/07/08 11:04:33;;;;;;;;;;;;;;;25.92;53.30;99088.81;5019108;28;20111;-71
2021/07/08 11:07:22;;;;;;;1.48;1.13;;;;;;;25.34;56.36;99098.09;5013884;28;19948;-73
2021/07/08 11:09:58;;;;;;;1.77;1.15;;;;;;;24.90;57.65;99106.53;5022946;28;20021;-73
2021/07/08 11:12:35;;;;;;;1.55;1.02;;;;;;;24.60;57.22;99105.66;5014618;28;20033;-70
2021/07/08 11:15:01;;;;;;;2.33;1.30;;;;;;;24.56;57.11;99110.13;5014438;28;20586;-72
2021/07/08 11:17:39;;;;;;;1.73;1.33;;;;;;;24.04;56.92;99105.97;5024737;28;20038;-74
2021/07/08 11:20:29;;;;;;;1.55;1.20;;;;;;;23.29;60.32;99115.09;5052468;28;20028;-72
2021/07/08 11:22:54;;;;;;;1.70;1.45;;;;;;;23.12;60.18;99109.84;5034925;28;20038;-72
2021/07/08 11:25:20;;;;;;;3.30;1.75;;;;;;;22.73;60.66;99104.06;5017053;28;20030;-72
2021/07/08 11:27:47;;;;;;;2.00;1.52;;;;;;;22.71;60.65;99098.81;5040434;28;20032;-73
2021/07/08 11:30:15;;;;;;;2.03;1.48;;;;;;;22.86;60.43;99103.50;5052972;28;20039;-69
2021/07/08 11:32:50;;;;;;;2.28;1.50;;;;;;;23.03;60.01;99081.19;5052481;28;20100;-72
2021/07/08 11:35:24;;;;;;;1.90;1.30;;;;;;;23.48;59.56;99070.31;5035080;28;20041;-68
2021/07/08 11:37:54;;;;;;;3.35;1.48;;;;;;;23.65;60.36;99053.38;5021291;28;20160;-74
2021/07/08 11:40:20;;;;;;;1.73;1.40;;;;;;;24.16;60.25;99089.88;5031946;28;20104;-67